Littorina — DLMG — position and weather

sailwx.info

Track history (hours):
 
Tides and Currents Weather Stations Pressure Air Temp Water Temp Dewpoint Dewpoint Depression Visibility Wind Speed Wind Dir Waves Ship Positions

Oceanographic research ship Littorina (Germany)

Detailed information on ship capabilities available from University of Delaware's Ocean Information Center.

Last reported at 2019-Apr-24 21:29 UTC. Time now 2019-Apr-24 21:52 UTC.
Position N 54°20' E 010°09'.

Length 30 m; draft 3 m.

Type: Dredging. MMSI: 211214250.

Date/timePositionNaut miles runAvg speedWind from/ knotsBaromVisibWave heightAir tempDewpointWater temp
2019-Apr-24 21:29N 54°20' E 010°09'0 0.0
2019-Apr-24 20:59N 54°20' E 010°09'0 0.0
2019-Apr-24 20:29N 54°20' E 010°09'0 0.0
2019-Apr-24 19:59N 54°20' E 010°09'0 0.0
2019-Apr-24 19:29N 54°20' E 010°09'0 0.0
2019-Apr-24 18:59N 54°20' E 010°09'0 0.0
2019-Apr-24 18:20N 54°20' E 010°09'0 0.0
2019-Apr-24 17:50N 54°20' E 010°09'0 0.0
2019-Apr-24 17:20N 54°20' E 010°09'0 0.0
2019-Apr-24 16:53N 54°20' E 010°09'0 0.0
2019-Apr-24 16:23N 54°20' E 010°09'0 0.0
2019-Apr-24 15:53N 54°20' E 010°09'0 0.0
2019-Apr-24 15:23N 54°20' E 010°09'0 0.0
2019-Apr-24 14:53N 54°20' E 010°09'0 0.0
2019-Apr-24 14:08N 54°20' E 010°09'0 0.0
2019-Apr-24 13:56N 54°20' E 010°09'0 0.0
2019-Apr-24 13:29N 54°20' E 010°09'0 0.0
2019-Apr-24 12:59N 54°20' E 010°09'2 3.5
2019-Apr-24 12:30N 54°21' E 010°10'5 8.8
2019-Apr-24 11:58N 54°26' E 010°13'3 7.3
2019-Apr-24 11:30N 54°29' E 010°11'4 8.7
2019-Apr-24 11:00N 54°31' E 010°04'1 2.4
2019-Apr-24 10:28N 54°32' E 010°03'0 0.0
2019-Apr-24 09:49N 54°32' E 010°03'0 0.0
2019-Apr-24 09:28N 54°32' E 010°03'0 0.0
2019-Apr-24 08:49N 54°32' E 010°03'0 0.9
2019-Apr-24 08:30N 54°32' E 010°02'1 1.5
2019-Apr-24 08:00N 54°32' E 010°04'4 8.3
2019-Apr-24 07:31N 54°30' E 010°10'4 7.4
2019-Apr-24 07:01N 54°27' E 010°13'4 8.7
2019-Apr-24 06:31N 54°22' E 010°11'3 5.6
2019-Apr-24 06:01N 54°20' E 010°09'0 0.0
2019-Apr-24 05:30N 54°20' E 010°09'0 0.0
2019-Apr-24 05:00N 54°20' E 010°09'0 0.0
2019-Apr-24 04:30N 54°20' E 010°09'0 0.0
2019-Apr-24 04:00N 54°20' E 010°09'0 0.0
2019-Apr-24 03:30N 54°20' E 010°09'0 0.0
2019-Apr-24 03:00N 54°20' E 010°09'0 0.0
2019-Apr-24 02:30N 54°20' E 010°09'0 0.0
2019-Apr-24 02:00N 54°20' E 010°09'0 0.0
2019-Apr-24 01:30N 54°20' E 010°09'0 0.0
2019-Apr-24 01:00N 54°20' E 010°09'0 0.0
2019-Apr-24 00:30N 54°20' E 010°09'0 0.0
2019-Apr-24 00:00N 54°20' E 010°09'0 0.0
2019-Apr-23 23:21N 54°20' E 010°09'0 0.0
2019-Apr-23 22:51N 54°20' E 010°09'0 0.0
2019-Apr-23 22:21N 54°20' E 010°09'0 0.0
2019-Apr-23 21:54N 54°20' E 010°09'0 0.0
2019-Apr-23 21:24N 54°20' E 010°09'0 0.0
2019-Apr-23 20:54N 54°20' E 010°09'0 0.0
2019-Apr-23 20:24N 54°20' E 010°09'0 0.0
2019-Apr-23 19:54N 54°20' E 010°09'0 0.0
2019-Apr-23 19:27N 54°20' E 010°09'0 0.0
2019-Apr-23 18:57N 54°20' E 010°09'0 0.0
2019-Apr-23 18:27N 54°20' E 010°09'0 0.0
2019-Apr-23 17:57N 54°20' E 010°09'0 0.0
2019-Apr-23 17:27N 54°20' E 010°09'0 0.0
2019-Apr-23 16:57N 54°20' E 010°09'0 0.0
2019-Apr-23 16:30N 54°20' E 010°09'0 0.0
2019-Apr-23 16:00N 54°20' E 010°09'0 0.0
2019-Apr-23 15:30N 54°20' E 010°09'0 0.0
2019-Apr-23 15:00N 54°20' E 010°09'0 0.0
2019-Apr-23 14:30N 54°20' E 010°09'1 2.3
2019-Apr-23 14:00N 54°21' E 010°10'3 5.6
2019-Apr-23 13:30N 54°23' E 010°12'2 4.2
2019-Apr-23 13:00N 54°25' E 010°12'0 0.5
2019-Apr-23 12:30N 54°26' E 010°12'0 0.3
2019-Apr-23 12:01N 54°26' E 010°12'0 0.4
2019-Apr-23 11:30N 54°25' E 010°12'0 0.3
2019-Apr-23 11:01N 54°25' E 010°12'0 0.7
2019-Apr-23 10:31N 54°26' E 010°12'0 0.4
2019-Apr-23 10:00N 54°26' E 010°12'0 0.1
2019-Apr-23 09:31N 54°26' E 010°12'0 0.9
2019-Apr-23 09:00N 54°26' E 010°11'1 1.4
2019-Apr-23 08:31N 54°26' E 010°12'1 2.8
2019-Apr-23 08:00N 54°24' E 010°12'2 5.0
2019-Apr-23 07:30N 54°22' E 010°10'2 4.4
2019-Apr-23 07:01N 54°20' E 010°09'0 0.0
2019-Apr-23 06:30N 54°20' E 010°09'0 0.0
2019-Apr-23 06:00N 54°20' E 010°09'0 0.0
2019-Apr-23 05:30N 54°20' E 010°09'0 0.0
2019-Apr-23 05:00N 54°20' E 010°09'0 0.0
2019-Apr-23 04:30N 54°20' E 010°09'0 0.0
2019-Apr-23 04:00N 54°20' E 010°09'0 0.0
2019-Apr-23 03:30N 54°20' E 010°09'0 0.0
2019-Apr-23 03:00N 54°20' E 010°09'0 0.0
2019-Apr-23 02:30N 54°20' E 010°09'0 0.0
2019-Apr-23 02:00N 54°20' E 010°09'0 0.0
2019-Apr-23 01:30N 54°20' E 010°09'0 0.0
2019-Apr-23 01:00N 54°20' E 010°09'0 0.0
2019-Apr-23 00:30N 54°20' E 010°09'0 0.0
2019-Apr-23 00:00N 54°20' E 010°09'0 0.0
2019-Apr-22 23:21N 54°20' E 010°09'0 0.0
2019-Apr-22 22:51N 54°20' E 010°09'0 0.0
2019-Apr-22 22:21N 54°20' E 010°09'0 0.0
2019-Apr-22 21:54N 54°20' E 010°09'0 0.0
2019-Apr-22 21:24N 54°20' E 010°09'0 0.0
2019-Apr-22 20:54N 54°20' E 010°09'0 0.0
2019-Apr-22 20:24N 54°20' E 010°09'0 0.0
2019-Apr-22 19:54N 54°20' E 010°09'0 0.0
2019-Apr-22 19:24N 54°20' E 010°09'0 0.0
2019-Apr-22 18:57N 54°20' E 010°09'0 0.0
2019-Apr-22 18:27N 54°20' E 010°09'0 0.0
2019-Apr-22 17:57N 54°20' E 010°09'0 0.0
2019-Apr-22 17:27N 54°20' E 010°09'0 0.0
2019-Apr-22 16:57N 54°20' E 010°09'0 0.0
2019-Apr-22 16:27N 54°20' E 010°09'0 0.0
2019-Apr-22 16:00N 54°20' E 010°09'0 0.0
2019-Apr-22 15:30N 54°20' E 010°09'0 0.0
2019-Apr-22 15:00N 54°20' E 010°09'0 0.0
2019-Apr-22 14:30N 54°20' E 010°09'0 0.0
2019-Apr-22 14:00N 54°20' E 010°09'0 0.1
2019-Apr-22 13:30N 54°20' E 010°09'0 0.1
2019-Apr-22 13:00N 54°20' E 010°09'0 0.0
2019-Apr-22 12:30N 54°20' E 010°09'0 0.0
2019-Apr-22 11:57N 54°20' E 010°09'0 0.0
2019-Apr-22 11:30N 54°20' E 010°09'0 0.0
2019-Apr-22 10:48N 54°20' E 010°09'0 0.0
2019-Apr-22 10:30N 54°20' E 010°09'0 0.0
2019-Apr-22 10:00N 54°20' E 010°09'0 0.0
2019-Apr-22 09:30N 54°20' E 010°09'0 0.0
2019-Apr-22 09:00N 54°20' E 010°09'0 0.0
2019-Apr-22 08:21N 54°20' E 010°09'0 0.0
2019-Apr-22 07:54N 54°20' E 010°09'0 0.0
2019-Apr-22 07:21N 54°20' E 010°09'0 0.0
2019-Apr-22 06:54N 54°20' E 010°09'0 0.0
2019-Apr-22 06:24N 54°20' E 010°09'0 0.0
2019-Apr-22 05:54N 54°20' E 010°09'0 0.0
2019-Apr-22 05:24N 54°20' E 010°09'0 0.0
2019-Apr-22 04:54N 54°20' E 010°09'0 0.0
2019-Apr-22 04:27N 54°20' E 010°09'0 0.0
2019-Apr-22 03:57N 54°20' E 010°09'0 0.0
2019-Apr-22 03:27N 54°20' E 010°09'0 0.0
2019-Apr-22 02:57N 54°20' E 010°09'0 0.0
2019-Apr-22 02:27N 54°20' E 010°09'0 0.0
2019-Apr-22 01:57N 54°20' E 010°09'0 0.0
2019-Apr-22 01:30N 54°20' E 010°09'0 0.0
2019-Apr-22 00:57N 54°20' E 010°09'0 0.0
2019-Apr-22 00:30N 54°20' E 010°09'0 0.0
2019-Apr-22 00:00N 54°20' E 010°09'0 0.0
2019-Apr-21 23:30N 54°20' E 010°09'0 0.0
2019-Apr-21 23:00N 54°20' E 010°09'0 0.0
2019-Apr-21 22:30N 54°20' E 010°09'0 0.0
2019-Apr-21 22:00N 54°20' E 010°09'0 0.0
2019-Apr-21 21:29N 54°20' E 010°09'0 0.0
2019-Apr-21 20:48N 54°20' E 010°09'0 0.0
2019-Apr-21 20:17N 54°20' E 010°09'0 0.0
2019-Apr-21 20:00N 54°20' E 010°09'0 0.0
2019-Apr-21 19:30N 54°20' E 010°09'0 0.0
2019-Apr-21 19:00N 54°20' E 010°09'0 0.0
2019-Apr-21 18:21N 54°20' E 010°09'0 0.0
2019-Apr-21 18:00N 54°20' E 010°09'0 0.0
2019-Apr-21 17:21N 54°20' E 010°09'0 0.0
2019-Apr-21 16:54N 54°20' E 010°09'0 0.0
2019-Apr-21 16:24N 54°20' E 010°09'0 0.0
2019-Apr-21 15:54N 54°20' E 010°09'0 0.0
2019-Apr-21 15:24N 54°20' E 010°09'0 0.0
2019-Apr-21 14:54N 54°20' E 010°09'0 0.0
2019-Apr-21 14:23N 54°20' E 010°09'0 0.0
2019-Apr-21 13:54N 54°20' E 010°09'0 0.0
2019-Apr-21 13:24N 54°20' E 010°09'0 0.0
2019-Apr-21 12:57N 54°20' E 010°09'0 0.0
2019-Apr-21 12:27N 54°20' E 010°09'0 0.0
2019-Apr-21 11:57N 54°20' E 010°09'0 0.0
2019-Apr-21 11:27N 54°20' E 010°09'0 0.0
2019-Apr-21 10:56N 54°20' E 010°09'0 0.0
2019-Apr-21 10:30N 54°20' E 010°09'0 0.0
2019-Apr-21 09:56N 54°20' E 010°09'0 0.0
2019-Apr-21 09:30N 54°20' E 010°09'0 0.0
2019-Apr-21 08:59N 54°20' E 010°09'0 0.0
2019-Apr-21 08:30N 54°20' E 010°09'0 0.0
2019-Apr-21 08:00N 54°20' E 010°09'0 0.0
2019-Apr-21 07:30N 54°20' E 010°09'0 0.0
2019-Apr-21 07:00N 54°20' E 010°09'0 0.0
2019-Apr-21 06:29N 54°20' E 010°09'0 0.0
2019-Apr-21 06:00N 54°20' E 010°09'0 0.0
2019-Apr-21 05:29N 54°20' E 010°09'0 0.0
2019-Apr-21 04:59N 54°20' E 010°09'0 0.0
2019-Apr-21 04:30N 54°20' E 010°09'0 0.0
2019-Apr-21 03:59N 54°20' E 010°09'0 0.0
2019-Apr-21 03:29N 54°20' E 010°09'0 0.0
2019-Apr-21 02:59N 54°20' E 010°09'0 0.0
2019-Apr-21 02:20N 54°20' E 010°09'0 0.0
2019-Apr-21 01:54N 54°20' E 010°09'0 0.0
2019-Apr-21 01:21N 54°20' E 010°09'0 0.0
2019-Apr-21 00:53N 54°20' E 010°09'0 0.0
2019-Apr-21 00:24N 54°20' E 010°09'0 0.0
2019-Apr-20 23:53N 54°20' E 010°09'0 0.0
2019-Apr-20 23:23N 54°20' E 010°09'0 0.0
2019-Apr-20 22:53N 54°20' E 010°09'0 0.0
2019-Apr-20 22:23N 54°20' E 010°09'0 0.0
2019-Apr-20 21:56N 54°20' E 010°09'0 0.0
2019-Apr-20 21:23N 54°20' E 010°09'0 0.0
2019-Apr-20 20:56N 54°20' E 010°09'0 0.0
2019-Apr-20 20:26N 54°20' E 010°09'0 0.0
2019-Apr-20 19:56N 54°20' E 010°09'0 0.0
2019-Apr-20 19:26N 54°20' E 010°09'0 0.0
2019-Apr-20 18:57N 54°20' E 010°09'0 0.0
2019-Apr-20 18:29N 54°20' E 010°09'0 0.0
2019-Apr-20 17:59N 54°20' E 010°09'0 0.0
2019-Apr-20 17:29N 54°20' E 010°09'0 0.0
2019-Apr-20 16:59N 54°20' E 010°09'0 0.0
2019-Apr-20 16:29N 54°20' E 010°09'0 0.0
2019-Apr-20 15:59N 54°20' E 010°09'0 0.0
2019-Apr-20 15:29N 54°20' E 010°09'0 0.0
2019-Apr-20 14:59N 54°20' E 010°09'0 0.0
2019-Apr-20 14:29N 54°20' E 010°09'0 0.0
2019-Apr-20 13:59N 54°20' E 010°09'0 0.0
2019-Apr-20 13:29N 54°20' E 010°09'0 0.0
2019-Apr-20 12:59N 54°20' E 010°09'0 0.0
2019-Apr-20 12:20N 54°20' E 010°09'0 0.0
2019-Apr-20 11:50N 54°20' E 010°09'0 0.0
2019-Apr-20 11:20N 54°20' E 010°09'0 0.0
2019-Apr-20 10:50N 54°20' E 010°09'0 0.0
2019-Apr-20 10:23N 54°20' E 010°09'0 0.0
2019-Apr-20 09:50N 54°20' E 010°09'0 0.0
2019-Apr-20 09:23N 54°20' E 010°09'0 0.0
2019-Apr-20 08:53N 54°20' E 010°09'0 0.0
2019-Apr-20 08:23N 54°20' E 010°09'0 0.0
2019-Apr-20 07:53N 54°20' E 010°09'0 0.0
2019-Apr-20 07:23N 54°20' E 010°09'0 0.0
2019-Apr-20 06:56N 54°20' E 010°09'0 0.0
2019-Apr-20 06:26N 54°20' E 010°09'0 0.0
2019-Apr-20 05:56N 54°20' E 010°09'0 0.0
2019-Apr-20 05:26N 54°20' E 010°09'0 0.0
2019-Apr-20 04:56N 54°20' E 010°09'0 0.0
2019-Apr-20 04:29N 54°20' E 010°09'0 0.0
2019-Apr-20 03:59N 54°20' E 010°09'0 0.0
2019-Apr-20 03:29N 54°20' E 010°09'0 0.0
2019-Apr-20 02:59N 54°20' E 010°09'0 0.0
2019-Apr-20 02:29N 54°20' E 010°09'0 0.0
2019-Apr-20 01:59N 54°20' E 010°09'0 0.0
2019-Apr-20 01:29N 54°20' E 010°09'0 0.0
2019-Apr-20 00:59N 54°20' E 010°09'0 0.0
2019-Apr-20 00:29N 54°20' E 010°09'0 0.0
2019-Apr-19 23:59N 54°20' E 010°09'0 0.0
2019-Apr-19 23:29N 54°20' E 010°09'0 0.0
2019-Apr-19 22:59N 54°20' E 010°09'0 0.0
2019-Apr-19 22:29N 54°20' E 010°09'0 0.0
2019-Apr-19 21:59N 54°20' E 010°09'0 0.0
2019-Apr-19 21:29N 54°20' E 010°09'0 0.0
2019-Apr-19 20:59N 54°20' E 010°09'0 0.0
2019-Apr-19 20:23N 54°20' E 010°09'0 0.0
2019-Apr-19 19:59N 54°20' E 010°09'0 0.0
2019-Apr-19 19:26N 54°20' E 010°09'0 0.0
2019-Apr-19 18:56N 54°20' E 010°09'0 0.0
2019-Apr-19 18:23N 54°20' E 010°09'0 0.0
2019-Apr-19 17:53N 54°20' E 010°09'0 0.0
2019-Apr-19 17:23N 54°20' E 010°09'0 0.0
2019-Apr-19 16:53N 54°20' E 010°09'0 0.0
2019-Apr-19 16:26N 54°20' E 010°09'0 0.0
2019-Apr-19 15:56N 54°20' E 010°09'0 0.0
2019-Apr-19 15:26N 54°20' E 010°09'0 0.0
2019-Apr-19 14:53N 54°20' E 010°09'0 0.0
2019-Apr-19 14:26N 54°20' E 010°09'0 0.0
2019-Apr-19 13:59N 54°20' E 010°09'0 0.0
2019-Apr-19 13:26N 54°20' E 010°09'0 0.0
2019-Apr-19 12:56N 54°20' E 010°09'0 0.0
2019-Apr-19 12:29N 54°20' E 010°09'0 0.0
2019-Apr-19 11:59N 54°20' E 010°09'0 0.0
2019-Apr-19 11:29N 54°20' E 010°09'0 0.0
2019-Apr-19 10:59N 54°20' E 010°09'0 0.0
2019-Apr-19 10:29N 54°20' E 010°09'0 0.0
2019-Apr-19 09:59N 54°20' E 010°09'0 0.0
2019-Apr-19 09:29N 54°20' E 010°09'0 0.0
2019-Apr-19 08:59N 54°20' E 010°09'0 0.0
2019-Apr-19 08:29N 54°20' E 010°09'0 0.0
2019-Apr-19 07:59N 54°20' E 010°09'0 0.0
2019-Apr-19 07:20N 54°20' E 010°09'0 0.0
2019-Apr-19 06:59N 54°20' E 010°09'0 0.0
2019-Apr-19 06:29N 54°20' E 010°09'0 0.0
2019-Apr-19 05:59N 54°20' E 010°09'0 0.0
2019-Apr-19 05:20N 54°20' E 010°09'0 0.0
2019-Apr-19 04:50N 54°20' E 010°09'0 0.0
2019-Apr-19 04:23N 54°20' E 010°09'0 0.0
2019-Apr-19 03:53N 54°20' E 010°09'0 0.0
2019-Apr-19 03:23N 54°20' E 010°09'0 0.0
2019-Apr-19 02:53N 54°20' E 010°09'0 0.0
2019-Apr-19 02:23N 54°20' E 010°09'0 0.0
2019-Apr-19 01:50N 54°20' E 010°09'0 0.0
2019-Apr-19 01:26N 54°20' E 010°09'0 0.0
2019-Apr-19 00:59N 54°20' E 010°09'0 0.0
2019-Apr-19 00:26N 54°20' E 010°09'0 0.0
2019-Apr-18 23:56N 54°20' E 010°09'0 0.0
2019-Apr-18 23:26N 54°20' E 010°09'0 0.0
2019-Apr-18 22:59N 54°20' E 010°09'0 0.0
2019-Apr-18 22:26N 54°20' E 010°09'0 0.0
2019-Apr-18 21:59N 54°20' E 010°09'0 0.0
2019-Apr-18 21:29N 54°20' E 010°09'0 0.0
2019-Apr-18 20:59N 54°20' E 010°09'0 0.0
2019-Apr-18 20:29N 54°20' E 010°09'0 0.0
2019-Apr-18 19:59N 54°20' E 010°09'0 0.0
2019-Apr-18 19:29N 54°20' E 010°09'0 0.0
2019-Apr-18 18:59N 54°20' E 010°09'0 0.0
2019-Apr-18 18:29N 54°20' E 010°09'0 0.0
2019-Apr-18 17:59N 54°20' E 010°09'0 0.0
2019-Apr-18 17:17N 54°20' E 010°09'0 0.0
2019-Apr-18 16:59N 54°20' E 010°09'0 0.0
2019-Apr-18 16:29N 54°20' E 010°09'0 0.0
2019-Apr-18 15:59N 54°20' E 010°09'0 0.0
2019-Apr-18 15:20N 54°20' E 010°09'0 0.0
2019-Apr-18 14:59N 54°20' E 010°09'0 0.0
2019-Apr-18 14:20N 54°20' E 010°09'0 0.0
2019-Apr-18 13:50N 54°20' E 010°09'0 0.0
2019-Apr-18 13:20N 54°20' E 010°09'0 0.0
2019-Apr-18 12:53N 54°20' E 010°09'0 0.0
2019-Apr-18 12:23N 54°20' E 010°09'0 0.0
2019-Apr-18 11:53N 54°20' E 010°09'1 2.3
2019-Apr-18 11:30N 54°20' E 010°10'0 0.3
2019-Apr-18 11:00N 54°20' E 010°11'3 4.6
2019-Apr-18 10:26N 54°22' E 010°08'2 4.5
2019-Apr-18 10:00N 54°22' E 010°05'4 8.0
2019-Apr-18 09:30N 54°21' E 009°59'4 7.2
2019-Apr-18 09:00N 54°21' E 009°53'4 8.0
2019-Apr-18 08:30N 54°21' E 009°46'4 8.0
2019-Apr-18 08:00N 54°18' E 009°42'4 7.3
2019-Apr-18 07:30N 54°15' E 009°37'4 8.4
2019-Apr-18 07:00N 54°12' E 009°33'4 8.6
2019-Apr-18 06:29N 54°10' E 009°26'4 8.3
2019-Apr-18 05:59N 54°08' E 009°20'4 8.6
2019-Apr-18 05:29N 54°04' E 009°19'11 7.7
2019-Apr-18 04:03N 53°54' E 009°09'0 0.0
2019-Apr-18 00:48N 53°54' E 009°09'0 0.0
2019-Apr-18 00:30N 53°54' E 009°09'0 0.0
2019-Apr-17 23:48N 53°54' E 009°09'9 1.7
2019-Apr-17 18:26N 53°51' E 008°55'4 6.5
2019-Apr-17 17:50N 53°50' E 008°49'3 5.0
2019-Apr-17 17:19N 53°51' E 008°45'14 0.3
2019-Apr-15 14:48N 53°53' E 009°08'1 1.9
2019-Apr-15 14:26N 53°54' E 009°09'4 7.9
2019-Apr-15 14:00N 53°56' E 009°13'4 8.5
2019-Apr-15 13:29N 53°60' E 009°17'4 8.6
2019-Apr-15 13:00N 54°04' E 009°19'4 8.8
2019-Apr-15 12:31N 54°08' E 009°20'4 8.5
2019-Apr-15 12:00N 54°10' E 009°26'4 8.5
2019-Apr-15 11:31N 54°12' E 009°33'4 7.4
2019-Apr-15 11:00N 54°15' E 009°37'4 7.8
2019-Apr-15 10:31N 54°18' E 009°41'4 8.3
2019-Apr-15 10:01N 54°21' E 009°46'4 8.1
2019-Apr-15 09:31N 54°21' E 009°53'4 7.8
2019-Apr-15 09:00N 54°21' E 009°59'3 7.0
2019-Apr-15 08:31N 54°22' E 010°05'2 4.5
2019-Apr-15 08:00N 54°22' E 010°09'0 0.0
2019-Apr-15 07:30N 54°22' E 010°09'1 1.2
2019-Apr-15 07:00N 54°22' E 010°09'0 0.2
2019-Apr-15 06:30N 54°22' E 010°09'0 0.4
2019-Apr-15 06:00N 54°21' E 010°10'2 2.5
2019-Apr-15 05:20N 54°20' E 010°09'0 0.0
2019-Apr-15 04:50N 54°20' E 010°09'0 0.0
2019-Apr-15 04:23N 54°20' E 010°09'0 0.0
2019-Apr-15 03:53N 54°20' E 010°09'0 0.0
2019-Apr-15 03:23N 54°20' E 010°09'0 0.0
2019-Apr-15 02:53N 54°20' E 010°09'0 0.0
2019-Apr-15 02:23N 54°20' E 010°09'0 0.0
2019-Apr-15 01:41N 54°20' E 010°09'0 0.0
2019-Apr-15 01:23N 54°20' E 010°09'0 0.0
2019-Apr-15 00:56N 54°20' E 010°09'0 0.0
2019-Apr-15 00:26N 54°20' E 010°09'0 0.0
2019-Apr-14 23:56N 54°20' E 010°09'0 0.0
2019-Apr-14 23:26N 54°20' E 010°09'0 0.0
2019-Apr-14 22:56N 54°20' E 010°09'0 0.0
2019-Apr-14 22:29N 54°20' E 010°09'0 0.0
2019-Apr-14 21:59N 54°20' E 010°09'  
Track history (hours):
 
Tides and Currents Weather Stations Pressure Air Temp Water Temp Dewpoint Dewpoint Depression Visibility Wind Speed Wind Dir Waves Ship Positions

Oceanographic research ship Littorina (Germany)

Detailed information on ship capabilities available from University of Delaware's Ocean Information Center.

Last reported at 2019-Apr-24 21:29 UTC. Time now 2019-Apr-24 21:52 UTC.
Position N 54°20' E 010°09'.

Length 30 m; draft 3 m.

Type: Dredging. MMSI: 211214250.

Date/timePositionNaut miles runAvg speedWind from/ knotsBaromVisibWave heightAir tempDewpointWater temp
2019-Apr-24 21:29N 54°20' E 010°09'0 0.0
2019-Apr-24 20:59N 54°20' E 010°09'0 0.0
2019-Apr-24 20:29N 54°20' E 010°09'0 0.0
2019-Apr-24 19:59N 54°20' E 010°09'0 0.0
2019-Apr-24 19:29N 54°20' E 010°09'0 0.0
2019-Apr-24 18:59N 54°20' E 010°09'0 0.0
2019-Apr-24 18:20N 54°20' E 010°09'0 0.0
2019-Apr-24 17:50N 54°20' E 010°09'0 0.0
2019-Apr-24 17:20N 54°20' E 010°09'0 0.0
2019-Apr-24 16:53N 54°20' E 010°09'0 0.0
2019-Apr-24 16:23N 54°20' E 010°09'0 0.0
2019-Apr-24 15:53N 54°20' E 010°09'0 0.0
2019-Apr-24 15:23N 54°20' E 010°09'0 0.0
2019-Apr-24 14:53N 54°20' E 010°09'0 0.0
2019-Apr-24 14:08N 54°20' E 010°09'0 0.0
2019-Apr-24 13:56N 54°20' E 010°09'0 0.0
2019-Apr-24 13:29N 54°20' E 010°09'0 0.0
2019-Apr-24 12:59N 54°20' E 010°09'2 3.5
2019-Apr-24 12:30N 54°21' E 010°10'5 8.8
2019-Apr-24 11:58N 54°26' E 010°13'3 7.3
2019-Apr-24 11:30N 54°29' E 010°11'4 8.7
2019-Apr-24 11:00N 54°31' E 010°04'1 2.4
2019-Apr-24 10:28N 54°32' E 010°03'0 0.0
2019-Apr-24 09:49N 54°32' E 010°03'0 0.0
2019-Apr-24 09:28N 54°32' E 010°03'0 0.0
2019-Apr-24 08:49N 54°32' E 010°03'0 0.9
2019-Apr-24 08:30N 54°32' E 010°02'1 1.5
2019-Apr-24 08:00N 54°32' E 010°04'4 8.3
2019-Apr-24 07:31N 54°30' E 010°10'4 7.4
2019-Apr-24 07:01N 54°27' E 010°13'4 8.7
2019-Apr-24 06:31N 54°22' E 010°11'3 5.6
2019-Apr-24 06:01N 54°20' E 010°09'0 0.0
2019-Apr-24 05:30N 54°20' E 010°09'0 0.0
2019-Apr-24 05:00N 54°20' E 010°09'0 0.0
2019-Apr-24 04:30N 54°20' E 010°09'0 0.0
2019-Apr-24 04:00N 54°20' E 010°09'0 0.0
2019-Apr-24 03:30N 54°20' E 010°09'0 0.0
2019-Apr-24 03:00N 54°20' E 010°09'0 0.0
2019-Apr-24 02:30N 54°20' E 010°09'0 0.0
2019-Apr-24 02:00N 54°20' E 010°09'0 0.0
2019-Apr-24 01:30N 54°20' E 010°09'0 0.0
2019-Apr-24 01:00N 54°20' E 010°09'0 0.0
2019-Apr-24 00:30N 54°20' E 010°09'0 0.0
2019-Apr-24 00:00N 54°20' E 010°09'0 0.0
2019-Apr-23 23:21N 54°20' E 010°09'0 0.0
2019-Apr-23 22:51N 54°20' E 010°09'0 0.0
2019-Apr-23 22:21N 54°20' E 010°09'0 0.0
2019-Apr-23 21:54N 54°20' E 010°09'0 0.0
2019-Apr-23 21:24N 54°20' E 010°09'0 0.0
2019-Apr-23 20:54N 54°20' E 010°09'0 0.0
2019-Apr-23 20:24N 54°20' E 010°09'0 0.0
2019-Apr-23 19:54N 54°20' E 010°09'0 0.0
2019-Apr-23 19:27N 54°20' E 010°09'0 0.0
2019-Apr-23 18:57N 54°20' E 010°09'0 0.0
2019-Apr-23 18:27N 54°20' E 010°09'0 0.0
2019-Apr-23 17:57N 54°20' E 010°09'0 0.0
2019-Apr-23 17:27N 54°20' E 010°09'0 0.0
2019-Apr-23 16:57N 54°20' E 010°09'0 0.0
2019-Apr-23 16:30N 54°20' E 010°09'0 0.0
2019-Apr-23 16:00N 54°20' E 010°09'0 0.0
2019-Apr-23 15:30N 54°20' E 010°09'0 0.0
2019-Apr-23 15:00N 54°20' E 010°09'0 0.0
2019-Apr-23 14:30N 54°20' E 010°09'1 2.3
2019-Apr-23 14:00N 54°21' E 010°10'3 5.6
2019-Apr-23 13:30N 54°23' E 010°12'2 4.2
2019-Apr-23 13:00N 54°25' E 010°12'0 0.5
2019-Apr-23 12:30N 54°26' E 010°12'0 0.3
2019-Apr-23 12:01N 54°26' E 010°12'0 0.4
2019-Apr-23 11:30N 54°25' E 010°12'0 0.3
2019-Apr-23 11:01N 54°25' E 010°12'0 0.7
2019-Apr-23 10:31N 54°26' E 010°12'0 0.4
2019-Apr-23 10:00N 54°26' E 010°12'0 0.1
2019-Apr-23 09:31N 54°26' E 010°12'0 0.9
2019-Apr-23 09:00N 54°26' E 010°11'1 1.4
2019-Apr-23 08:31N 54°26' E 010°12'1 2.8
2019-Apr-23 08:00N 54°24' E 010°12'2 5.0
2019-Apr-23 07:30N 54°22' E 010°10'2 4.4
2019-Apr-23 07:01N 54°20' E 010°09'0 0.0
2019-Apr-23 06:30N 54°20' E 010°09'0 0.0
2019-Apr-23 06:00N 54°20' E 010°09'0 0.0
2019-Apr-23 05:30N 54°20' E 010°09'0 0.0
2019-Apr-23 05:00N 54°20' E 010°09'0 0.0
2019-Apr-23 04:30N 54°20' E 010°09'0 0.0
2019-Apr-23 04:00N 54°20' E 010°09'0 0.0
2019-Apr-23 03:30N 54°20' E 010°09'0 0.0
2019-Apr-23 03:00N 54°20' E 010°09'0 0.0
2019-Apr-23 02:30N 54°20' E 010°09'0 0.0
2019-Apr-23 02:00N 54°20' E 010°09'0 0.0
2019-Apr-23 01:30N 54°20' E 010°09'0 0.0
2019-Apr-23 01:00N 54°20' E 010°09'0 0.0
2019-Apr-23 00:30N 54°20' E 010°09'0 0.0
2019-Apr-23 00:00N 54°20' E 010°09'0 0.0
2019-Apr-22 23:21N 54°20' E 010°09'0 0.0
2019-Apr-22 22:51N 54°20' E 010°09'0 0.0
2019-Apr-22 22:21N 54°20' E 010°09'0 0.0
2019-Apr-22 21:54N 54°20' E 010°09'0 0.0
2019-Apr-22 21:24N 54°20' E 010°09'0 0.0
2019-Apr-22 20:54N 54°20' E 010°09'0 0.0
2019-Apr-22 20:24N 54°20' E 010°09'0 0.0
2019-Apr-22 19:54N 54°20' E 010°09'0 0.0
2019-Apr-22 19:24N 54°20' E 010°09'0 0.0
2019-Apr-22 18:57N 54°20' E 010°09'0 0.0
2019-Apr-22 18:27N 54°20' E 010°09'0 0.0
2019-Apr-22 17:57N 54°20' E 010°09'0 0.0
2019-Apr-22 17:27N 54°20' E 010°09'0 0.0
2019-Apr-22 16:57N 54°20' E 010°09'0 0.0
2019-Apr-22 16:27N 54°20' E 010°09'0 0.0
2019-Apr-22 16:00N 54°20' E 010°09'0 0.0
2019-Apr-22 15:30N 54°20' E 010°09'0 0.0
2019-Apr-22 15:00N 54°20' E 010°09'0 0.0
2019-Apr-22 14:30N 54°20' E 010°09'0 0.0
2019-Apr-22 14:00N 54°20' E 010°09'0 0.1
2019-Apr-22 13:30N 54°20' E 010°09'0 0.1
2019-Apr-22 13:00N 54°20' E 010°09'0 0.0
2019-Apr-22 12:30N 54°20' E 010°09'0 0.0
2019-Apr-22 11:57N 54°20' E 010°09'0 0.0
2019-Apr-22 11:30N 54°20' E 010°09'0 0.0
2019-Apr-22 10:48N 54°20' E 010°09'0 0.0
2019-Apr-22 10:30N 54°20' E 010°09'0 0.0
2019-Apr-22 10:00N 54°20' E 010°09'0 0.0
2019-Apr-22 09:30N 54°20' E 010°09'0 0.0
2019-Apr-22 09:00N 54°20' E 010°09'0 0.0
2019-Apr-22 08:21N 54°20' E 010°09'0 0.0
2019-Apr-22 07:54N 54°20' E 010°09'0 0.0
2019-Apr-22 07:21N 54°20' E 010°09'0 0.0
2019-Apr-22 06:54N 54°20' E 010°09'0 0.0
2019-Apr-22 06:24N 54°20' E 010°09'0 0.0
2019-Apr-22 05:54N 54°20' E 010°09'0 0.0
2019-Apr-22 05:24N 54°20' E 010°09'0 0.0
2019-Apr-22 04:54N 54°20' E 010°09'0 0.0
2019-Apr-22 04:27N 54°20' E 010°09'0 0.0
2019-Apr-22 03:57N 54°20' E 010°09'0 0.0
2019-Apr-22 03:27N 54°20' E 010°09'0 0.0
2019-Apr-22 02:57N 54°20' E 010°09'0 0.0
2019-Apr-22 02:27N 54°20' E 010°09'0 0.0
2019-Apr-22 01:57N 54°20' E 010°09'0 0.0
2019-Apr-22 01:30N 54°20' E 010°09'0 0.0
2019-Apr-22 00:57N 54°20' E 010°09'0 0.0
2019-Apr-22 00:30N 54°20' E 010°09'0 0.0
2019-Apr-22 00:00N 54°20' E 010°09'0 0.0
2019-Apr-21 23:30N 54°20' E 010°09'0 0.0
2019-Apr-21 23:00N 54°20' E 010°09'0 0.0
2019-Apr-21 22:30N 54°20' E 010°09'0 0.0
2019-Apr-21 22:00N 54°20' E 010°09'0 0.0
2019-Apr-21 21:29N 54°20' E 010°09'0 0.0
2019-Apr-21 20:48N 54°20' E 010°09'0 0.0
2019-Apr-21 20:17N 54°20' E 010°09'0 0.0
2019-Apr-21 20:00N 54°20' E 010°09'0 0.0
2019-Apr-21 19:30N 54°20' E 010°09'0 0.0
2019-Apr-21 19:00N 54°20' E 010°09'0 0.0
2019-Apr-21 18:21N 54°20' E 010°09'0 0.0
2019-Apr-21 18:00N 54°20' E 010°09'0 0.0
2019-Apr-21 17:21N 54°20' E 010°09'0 0.0
2019-Apr-21 16:54N 54°20' E 010°09'0 0.0
2019-Apr-21 16:24N 54°20' E 010°09'0 0.0
2019-Apr-21 15:54N 54°20' E 010°09'0 0.0
2019-Apr-21 15:24N 54°20' E 010°09'0 0.0
2019-Apr-21 14:54N 54°20' E 010°09'0 0.0
2019-Apr-21 14:23N 54°20' E 010°09'0 0.0
2019-Apr-21 13:54N 54°20' E 010°09'0 0.0
2019-Apr-21 13:24N 54°20' E 010°09'0 0.0
2019-Apr-21 12:57N 54°20' E 010°09'0 0.0
2019-Apr-21 12:27N 54°20' E 010°09'0 0.0
2019-Apr-21 11:57N 54°20' E 010°09'0 0.0
2019-Apr-21 11:27N 54°20' E 010°09'0 0.0
2019-Apr-21 10:56N 54°20' E 010°09'0 0.0
2019-Apr-21 10:30N 54°20' E 010°09'0 0.0
2019-Apr-21 09:56N 54°20' E 010°09'0 0.0
2019-Apr-21 09:30N 54°20' E 010°09'0 0.0
2019-Apr-21 08:59N 54°20' E 010°09'0 0.0
2019-Apr-21 08:30N 54°20' E 010°09'0 0.0
2019-Apr-21 08:00N 54°20' E 010°09'0 0.0
2019-Apr-21 07:30N 54°20' E 010°09'0 0.0
2019-Apr-21 07:00N 54°20' E 010°09'0 0.0
2019-Apr-21 06:29N 54°20' E 010°09'0 0.0
2019-Apr-21 06:00N 54°20' E 010°09'0 0.0
2019-Apr-21 05:29N 54°20' E 010°09'0 0.0
2019-Apr-21 04:59N 54°20' E 010°09'0 0.0
2019-Apr-21 04:30N 54°20' E 010°09'0 0.0
2019-Apr-21 03:59N 54°20' E 010°09'0 0.0
2019-Apr-21 03:29N 54°20' E 010°09'0 0.0
2019-Apr-21 02:59N 54°20' E 010°09'0 0.0
2019-Apr-21 02:20N 54°20' E 010°09'0 0.0
2019-Apr-21 01:54N 54°20' E 010°09'0 0.0
2019-Apr-21 01:21N 54°20' E 010°09'0 0.0
2019-Apr-21 00:53N 54°20' E 010°09'0 0.0
2019-Apr-21 00:24N 54°20' E 010°09'0 0.0
2019-Apr-20 23:53N 54°20' E 010°09'0 0.0
2019-Apr-20 23:23N 54°20' E 010°09'0 0.0
2019-Apr-20 22:53N 54°20' E 010°09'0 0.0
2019-Apr-20 22:23N 54°20' E 010°09'0 0.0
2019-Apr-20 21:56N 54°20' E 010°09'0 0.0
2019-Apr-20 21:23N 54°20' E 010°09'0 0.0
2019-Apr-20 20:56N 54°20' E 010°09'0 0.0
2019-Apr-20 20:26N 54°20' E 010°09'0 0.0
2019-Apr-20 19:56N 54°20' E 010°09'0 0.0
2019-Apr-20 19:26N 54°20' E 010°09'0 0.0
2019-Apr-20 18:57N 54°20' E 010°09'0 0.0
2019-Apr-20 18:29N 54°20' E 010°09'0 0.0
2019-Apr-20 17:59N 54°20' E 010°09'0 0.0
2019-Apr-20 17:29N 54°20' E 010°09'0 0.0
2019-Apr-20 16:59N 54°20' E 010°09'0 0.0
2019-Apr-20 16:29N 54°20' E 010°09'0 0.0
2019-Apr-20 15:59N 54°20' E 010°09'0 0.0
2019-Apr-20 15:29N 54°20' E 010°09'0 0.0
2019-Apr-20 14:59N 54°20' E 010°09'0 0.0
2019-Apr-20 14:29N 54°20' E 010°09'0 0.0
2019-Apr-20 13:59N 54°20' E 010°09'0 0.0
2019-Apr-20 13:29N 54°20' E 010°09'0 0.0
2019-Apr-20 12:59N 54°20' E 010°09'0 0.0
2019-Apr-20 12:20N 54°20' E 010°09'0 0.0
2019-Apr-20 11:50N 54°20' E 010°09'0 0.0
2019-Apr-20 11:20N 54°20' E 010°09'0 0.0
2019-Apr-20 10:50N 54°20' E 010°09'0 0.0
2019-Apr-20 10:23N 54°20' E 010°09'0 0.0
2019-Apr-20 09:50N 54°20' E 010°09'0 0.0
2019-Apr-20 09:23N 54°20' E 010°09'0 0.0
2019-Apr-20 08:53N 54°20' E 010°09'0 0.0
2019-Apr-20 08:23N 54°20' E 010°09'0 0.0
2019-Apr-20 07:53N 54°20' E 010°09'0 0.0
2019-Apr-20 07:23N 54°20' E 010°09'0 0.0
2019-Apr-20 06:56N 54°20' E 010°09'0 0.0
2019-Apr-20 06:26N 54°20' E 010°09'0 0.0
2019-Apr-20 05:56N 54°20' E 010°09'0 0.0
2019-Apr-20 05:26N 54°20' E 010°09'0 0.0
2019-Apr-20 04:56N 54°20' E 010°09'0 0.0
2019-Apr-20 04:29N 54°20' E 010°09'0 0.0
2019-Apr-20 03:59N 54°20' E 010°09'0 0.0
2019-Apr-20 03:29N 54°20' E 010°09'0 0.0
2019-Apr-20 02:59N 54°20' E 010°09'0 0.0
2019-Apr-20 02:29N 54°20' E 010°09'0 0.0
2019-Apr-20 01:59N 54°20' E 010°09'0 0.0
2019-Apr-20 01:29N 54°20' E 010°09'0 0.0
2019-Apr-20 00:59N 54°20' E 010°09'0 0.0
2019-Apr-20 00:29N 54°20' E 010°09'0 0.0
2019-Apr-19 23:59N 54°20' E 010°09'0 0.0
2019-Apr-19 23:29N 54°20' E 010°09'0 0.0
2019-Apr-19 22:59N 54°20' E 010°09'0 0.0
2019-Apr-19 22:29N 54°20' E 010°09'0 0.0
2019-Apr-19 21:59N 54°20' E 010°09'0 0.0
2019-Apr-19 21:29N 54°20' E 010°09'0 0.0
2019-Apr-19 20:59N 54°20' E 010°09'0 0.0
2019-Apr-19 20:23N 54°20' E 010°09'0 0.0
2019-Apr-19 19:59N 54°20' E 010°09'0 0.0
2019-Apr-19 19:26N 54°20' E 010°09'0 0.0
2019-Apr-19 18:56N 54°20' E 010°09'0 0.0
2019-Apr-19 18:23N 54°20' E 010°09'0 0.0
2019-Apr-19 17:53N 54°20' E 010°09'0 0.0
2019-Apr-19 17:23N 54°20' E 010°09'0 0.0
2019-Apr-19 16:53N 54°20' E 010°09'0 0.0
2019-Apr-19 16:26N 54°20' E 010°09'0 0.0
2019-Apr-19 15:56N 54°20' E 010°09'0 0.0
2019-Apr-19 15:26N 54°20' E 010°09'0 0.0
2019-Apr-19 14:53N 54°20' E 010°09'0 0.0
2019-Apr-19 14:26N 54°20' E 010°09'0 0.0
2019-Apr-19 13:59N 54°20' E 010°09'0 0.0
2019-Apr-19 13:26N 54°20' E 010°09'0 0.0
2019-Apr-19 12:56N 54°20' E 010°09'0 0.0
2019-Apr-19 12:29N 54°20' E 010°09'0 0.0
2019-Apr-19 11:59N 54°20' E 010°09'0 0.0
2019-Apr-19 11:29N 54°20' E 010°09'0 0.0
2019-Apr-19 10:59N 54°20' E 010°09'0 0.0
2019-Apr-19 10:29N 54°20' E 010°09'0 0.0
2019-Apr-19 09:59N 54°20' E 010°09'0 0.0
2019-Apr-19 09:29N 54°20' E 010°09'0 0.0
2019-Apr-19 08:59N 54°20' E 010°09'0 0.0
2019-Apr-19 08:29N 54°20' E 010°09'0 0.0
2019-Apr-19 07:59N 54°20' E 010°09'0 0.0
2019-Apr-19 07:20N 54°20' E 010°09'0 0.0
2019-Apr-19 06:59N 54°20' E 010°09'0 0.0
2019-Apr-19 06:29N 54°20' E 010°09'0 0.0
2019-Apr-19 05:59N 54°20' E 010°09'0 0.0
2019-Apr-19 05:20N 54°20' E 010°09'0 0.0
2019-Apr-19 04:50N 54°20' E 010°09'0 0.0
2019-Apr-19 04:23N 54°20' E 010°09'0 0.0
2019-Apr-19 03:53N 54°20' E 010°09'0 0.0
2019-Apr-19 03:23N 54°20' E 010°09'0 0.0
2019-Apr-19 02:53N 54°20' E 010°09'0 0.0
2019-Apr-19 02:23N 54°20' E 010°09'0 0.0
2019-Apr-19 01:50N 54°20' E 010°09'0 0.0
2019-Apr-19 01:26N 54°20' E 010°09'0 0.0
2019-Apr-19 00:59N 54°20' E 010°09'0 0.0
2019-Apr-19 00:26N 54°20' E 010°09'0 0.0
2019-Apr-18 23:56N 54°20' E 010°09'0 0.0
2019-Apr-18 23:26N 54°20' E 010°09'0 0.0
2019-Apr-18 22:59N 54°20' E 010°09'0 0.0
2019-Apr-18 22:26N 54°20' E 010°09'0 0.0
2019-Apr-18 21:59N 54°20' E 010°09'0 0.0
2019-Apr-18 21:29N 54°20' E 010°09'0 0.0
2019-Apr-18 20:59N 54°20' E 010°09'0 0.0
2019-Apr-18 20:29N 54°20' E 010°09'0 0.0
2019-Apr-18 19:59N 54°20' E 010°09'0 0.0
2019-Apr-18 19:29N 54°20' E 010°09'0 0.0
2019-Apr-18 18:59N 54°20' E 010°09'0 0.0
2019-Apr-18 18:29N 54°20' E 010°09'0 0.0
2019-Apr-18 17:59N 54°20' E 010°09'0 0.0
2019-Apr-18 17:17N 54°20' E 010°09'0 0.0
2019-Apr-18 16:59N 54°20' E 010°09'0 0.0
2019-Apr-18 16:29N 54°20' E 010°09'0 0.0
2019-Apr-18 15:59N 54°20' E 010°09'0 0.0
2019-Apr-18 15:20N 54°20' E 010°09'0 0.0
2019-Apr-18 14:59N 54°20' E 010°09'0 0.0
2019-Apr-18 14:20N 54°20' E 010°09'0 0.0
2019-Apr-18 13:50N 54°20' E 010°09'0 0.0
2019-Apr-18 13:20N 54°20' E 010°09'0 0.0
2019-Apr-18 12:53N 54°20' E 010°09'0 0.0
2019-Apr-18 12:23N 54°20' E 010°09'0 0.0
2019-Apr-18 11:53N 54°20' E 010°09'1 2.3
2019-Apr-18 11:30N 54°20' E 010°10'0 0.3
2019-Apr-18 11:00N 54°20' E 010°11'3 4.6
2019-Apr-18 10:26N 54°22' E 010°08'2 4.5
2019-Apr-18 10:00N 54°22' E 010°05'4 8.0
2019-Apr-18 09:30N 54°21' E 009°59'4 7.2
2019-Apr-18 09:00N 54°21' E 009°53'4 8.0
2019-Apr-18 08:30N 54°21' E 009°46'4 8.0
2019-Apr-18 08:00N 54°18' E 009°42'4 7.3
2019-Apr-18 07:30N 54°15' E 009°37'4 8.4
2019-Apr-18 07:00N 54°12' E 009°33'4 8.6
2019-Apr-18 06:29N 54°10' E 009°26'4 8.3
2019-Apr-18 05:59N 54°08' E 009°20'4 8.6
2019-Apr-18 05:29N 54°04' E 009°19'11 7.7
2019-Apr-18 04:03N 53°54' E 009°09'0 0.0
2019-Apr-18 00:48N 53°54' E 009°09'0 0.0
2019-Apr-18 00:30N 53°54' E 009°09'0 0.0
2019-Apr-17 23:48N 53°54' E 009°09'9 1.7
2019-Apr-17 18:26N 53°51' E 008°55'4 6.5
2019-Apr-17 17:50N 53°50' E 008°49'3 5.0
2019-Apr-17 17:19N 53°51' E 008°45'14 0.3
2019-Apr-15 14:48N 53°53' E 009°08'1 1.9
2019-Apr-15 14:26N 53°54' E 009°09'4 7.9
2019-Apr-15 14:00N 53°56' E 009°13'4 8.5
2019-Apr-15 13:29N 53°60' E 009°17'4 8.6
2019-Apr-15 13:00N 54°04' E 009°19'4 8.8
2019-Apr-15 12:31N 54°08' E 009°20'4 8.5
2019-Apr-15 12:00N 54°10' E 009°26'4 8.5
2019-Apr-15 11:31N 54°12' E 009°33'4 7.4
2019-Apr-15 11:00N 54°15' E 009°37'4 7.8
2019-Apr-15 10:31N 54°18' E 009°41'4 8.3
2019-Apr-15 10:01N 54°21' E 009°46'4 8.1
2019-Apr-15 09:31N 54°21' E 009°53'4 7.8
2019-Apr-15 09:00N 54°21' E 009°59'3 7.0
2019-Apr-15 08:31N 54°22' E 010°05'2 4.5
2019-Apr-15 08:00N 54°22' E 010°09'0 0.0
2019-Apr-15 07:30N 54°22' E 010°09'1 1.2
2019-Apr-15 07:00N 54°22' E 010°09'0 0.2
2019-Apr-15 06:30N 54°22' E 010°09'0 0.4
2019-Apr-15 06:00N 54°21' E 010°10'2 2.5
2019-Apr-15 05:20N 54°20' E 010°09'0 0.0
2019-Apr-15 04:50N 54°20' E 010°09'0 0.0
2019-Apr-15 04:23N 54°20' E 010°09'0 0.0
2019-Apr-15 03:53N 54°20' E 010°09'0 0.0
2019-Apr-15 03:23N 54°20' E 010°09'0 0.0
2019-Apr-15 02:53N 54°20' E 010°09'0 0.0
2019-Apr-15 02:23N 54°20' E 010°09'0 0.0
2019-Apr-15 01:41N 54°20' E 010°09'0 0.0
2019-Apr-15 01:23N 54°20' E 010°09'0 0.0
2019-Apr-15 00:56N 54°20' E 010°09'0 0.0
2019-Apr-15 00:26N 54°20' E 010°09'0 0.0
2019-Apr-14 23:56N 54°20' E 010°09'0 0.0
2019-Apr-14 23:26N 54°20' E 010°09'0 0.0
2019-Apr-14 22:56N 54°20' E 010°09'0 0.0
2019-Apr-14 22:29N 54°20' E 010°09'0 0.0
2019-Apr-14 21:59N 54°20' E 010°09'  

Dump ship's entire track history